createdAt,value
2019-04-28T11:11:30.584Z,353.30
2019-04-28T11:14:10.256Z,112.33
2019-04-28T11:16:52.678Z,261.03
2019-04-28T11:19:36.006Z,462.53
2019-04-28T11:22:30.712Z,583.50
2019-04-28T11:25:07.360Z,324.87
2019-04-28T11:27:40.431Z,275.10
2019-04-28T11:30:24.233Z,450.20
2019-04-28T11:33:08.841Z,310.30
2019-04-28T11:35:42.354Z,506.60
2019-04-28T11:38:15.099Z,131.37
2019-04-28T11:40:48.163Z,192.10
2019-04-28T11:43:24.736Z,148.87
2019-04-28T11:46:03.555Z,348.67
2019-04-28T11:48:53.119Z,43.10
2019-04-28T11:51:32.765Z,100.83
2019-04-28T11:54:20.075Z,54.00
2019-04-28T11:57:04.214Z,11.70
2019-04-28T11:59:35.560Z,24.07
2019-04-28T12:02:16.923Z,15.17
2019-04-28T12:05:04.171Z,32.37
2019-04-28T12:07:51.763Z,130.67
2019-04-28T12:10:44.890Z,6.47
2019-04-28T12:13:41.725Z,42.83
2019-04-28T12:16:29.693Z,13.03
2019-04-28T12:19:06.152Z,23.17
2019-04-28T12:21:47.995Z,10.23
2019-04-28T12:24:33.822Z,7.77
2019-04-28T12:27:20.932Z,9.77
2019-04-28T12:29:58.373Z,19.13
2019-04-28T12:32:41.189Z,3.60
2019-04-28T12:35:18.515Z,4.50
2019-04-28T12:38:12.924Z,3.20
2019-04-28T12:40:52.826Z,11.47
2019-04-28T12:43:34.001Z,2.33
2019-04-28T12:46:12.975Z,2.00
2019-04-28T12:48:49.288Z,2.07
2019-04-28T12:51:30.899Z,3.40
2019-04-28T12:54:12.753Z,15.97
2019-04-28T12:56:50.417Z,2.70
2019-04-28T12:59:31.647Z,2.50
2019-04-28T13:02:19.981Z,6.17
2019-04-28T13:05:08.002Z,3.50
2019-04-28T13:07:49.452Z,9.63
2019-04-28T13:10:39.495Z,4.30
2019-04-28T13:13:14.944Z,6.60
2019-04-28T13:15:53.110Z,5.37
2019-04-28T13:18:34.360Z,3.67
2019-04-28T13:21:19.135Z,3.43
2019-04-28T13:24:04.834Z,18.57
2019-04-28T13:26:54.003Z,35.33
2019-04-28T13:29:27.527Z,5.40
2019-04-28T13:32:00.413Z,19.30
2019-04-28T13:34:43.250Z,2.13
2019-04-28T13:37:28.674Z,15.90
2019-04-28T13:40:05.216Z,5.60
2019-04-28T13:42:35.689Z,18.23
2019-04-28T13:45:17.464Z,8.33
2019-04-28T13:48:05.127Z,33.57
2019-04-28T13:50:41.999Z,27.20
2019-04-28T13:53:34.275Z,17.53
2019-04-28T13:56:42.560Z,29.67
2019-04-28T13:59:53.347Z,25.83
2019-04-28T14:03:02.263Z,17.47
2019-04-28T14:05:49.860Z,61.77
2019-04-28T14:08:22.052Z,17.87
2019-04-28T14:10:55.636Z,33.77
2019-04-28T14:13:27.828Z,8.60
2019-04-28T14:16:07.573Z,13.10
2019-04-28T14:18:39.139Z,80.63
2019-04-28T14:21:10.505Z,20.33
2019-04-28T14:24:08.977Z,41.47
2019-04-28T14:27:00.811Z,65.50
2019-04-28T14:30:15.910Z,78.07
2019-04-28T14:32:58.161Z,33.53
2019-04-28T14:35:33.150Z,64.73
2019-04-28T14:38:42.856Z,70.57
2019-04-28T14:41:16.010Z,134.53
2019-04-28T14:43:51.434Z,108.67
2019-04-28T14:46:25.256Z,141.30
2019-04-28T14:52:32.605Z,234.73
2019-04-28T14:58:18.501Z,136.17
2019-04-28T15:00:54.368Z,53.10
2019-04-28T15:03:34.331Z,126.60
2019-04-28T15:06:11.878Z,45.80
2019-04-28T15:08:52.420Z,71.93
2019-04-28T15:11:31.219Z,16.67
2019-04-28T15:14:09.196Z,28.63
2019-04-28T15:16:44.452Z,13.30
2019-04-28T15:19:18.111Z,50.60
2019-04-28T15:21:55.605Z,68.43
2019-04-28T15:24:47.678Z,97.17
2019-04-28T15:27:49.934Z,40.13
2019-04-28T15:31:04.643Z,111.67
2019-04-28T15:34:13.712Z,146.90
2019-04-28T15:37:16.513Z,415.47
2019-04-28T15:43:25.289Z,436.60
2019-04-28T15:46:02.386Z,520.93
2019-04-28T15:48:42.193Z,397.13
2019-04-28T15:57:09.713Z,497.00
2019-04-28T15:59:47.693Z,330.40
2019-04-28T16:02:20.751Z,216.47
2019-04-28T16:04:50.761Z,327.47
2019-04-28T16:07:25.481Z,168.33
2019-04-28T16:09:55.675Z,113.13
2019-04-28T16:12:26.401Z,319.20
2019-04-28T16:15:01.990Z,319.93
2019-04-28T16:17:58.036Z,351.57
2019-04-28T16:20:29.996Z,341.60
2019-04-28T16:23:12.208Z,201.97
2019-04-28T16:25:55.782Z,81.00
2019-04-28T16:28:32.720Z,217.43
2019-04-28T16:31:04.954Z,237.57
2019-04-28T16:33:35.660Z,144.80
2019-04-28T16:36:06.145Z,103.50
2019-04-28T16:38:36.401Z,85.17
2019-04-28T16:41:08.815Z,305.57
2019-04-28T16:43:47.198Z,125.67
